# WU historie - Weerstation Meteo 't Harde











Bezoek onze andere website:



Select another period ( hide this area )

Eenheden Periode Custom range Directly to
Metrisch Engels Beide
Dagelijkse Wekelijkse Maandelijkse Jaarlijkse
use both date-selectors for a custom range
previous Dag
With this date

WeatherUnderground graphs for this period ( click here )


Dagelijkse Samenvatting Zondag 22 september 2019
Tijd Temp. ( °C ) Dew pt. ( °C ) Wind ( km/h ) van Windvlaag ( km/h ) Luchtdruk ( hPa ) Humid.( % ) Rainrate ( cm )
Hoog21,0 12,2 8,0 NO ( 70/156 ) 12,9 1012,8 77 -
Gemiddeld11,5 6,6 1,1 Kalm #89/143 -142,6 1010,1 64 -
Laag-17,8 -17,8 -   -1607,4 1007,7 0 -
Dagelijkse Tabular details for Zondag 22 september 2019
Tijd Temp. ( °C ) Dew pt. ( °C ) Wind ( km/h ) van Windvlaag ( km/h ) Luchtdruk ( hPa ) Humid.( % ) Rainrate ( cm )
00:00 14,6 9,8 3,2 NO 4,8 1012,8 73 -
00:05 14,6 9,8   Kalm 1,6 1012,8 73 -
00:10 14,3 9,7   Kalm 1,6 1012,4 74 -
00:15 14,1 9,7   Kalm 1,6 1012,4 75 -
00:20 14,0 9,6 1,4 NO 3,2 1012,4 75 -
00:25 13,9 9,5   Kalm   1012,4 75 -
00:30 13,7 9,5   Kalm   1012,4 76 -
00:35 13,6 9,4   Kalm   1012,4 76 -
00:40 13,4 9,4   Kalm   1012,4 77 -
00:45 13,3 9,4 1,4 NO 1,6 1012,4 77 -
00:50 13,3 9,4   Kalm   1012,1 77 -
00:55 13,3 9,4   Kalm   1012,1 77 -
01:00 13,4 9,3   Kalm 1,6 1012,1 76 -
01:05 13,4 9,3 3,2 NO 4,8 1012,1 76 -
01:10 13,5 9,2 3,2 NO 3,2 1012,1 75 -
01:15 13,5 9,2 3,2 NO 3,2 1012,1 75 -
01:20 13,6 9,3 1,4 NO 4,8 1012,1 75 -
01:25 13,6 9,3 1,4 NO 3,2 1012,1 75 -
01:30 13,5 9,2 3,2 NO 6,4 1011,7 75 -
01:35 13,4 9,1 3,2 NO 6,4 1011,7 75 -
01:40 13,4 9,1 1,4 NO 4,8 1011,7 75 -
01:45 13,4 9,1 1,4 NO 3,2 1011,7 75 -
01:50 13,3 9,0 6,4 NO 6,4 1011,7 75 -
01:55 13,3 8,8 1,4 NO 8,0 1011,7 74 -
02:00 13,3 8,8 4,7 NO 6,4 1011,7 74 -
02:05 13,4 8,9 3,2 NO 4,8 1011,7 74 -
02:10 13,4 8,9   Kalm 4,8 1011,7 74 -
02:15 13,4 8,7 3,2 NO 6,4 1011,4 73 -
02:20 13,4 8,7 3,2 NO 4,8 1011,4 73 -
02:25 13,4 8,7 1,4 NO 6,4 1011,4 73 -
02:30 13,4 8,7 1,4 NO 3,2 1011,4 73 -
02:35 13,4 8,7 3,2 NO 4,8 1011,4 73 -
02:40 13,4 8,7 3,2 NO 3,2 1011,1 73 -
02:45 13,4 8,7   Kalm 3,2 1011,1 73 -
02:50 13,3 8,6 4,7 NO 4,8 1011,1 73 -
02:55 13,3 8,6 1,4 NO 3,2 1011,1 73 -
03:00 13,4 8,7   Kalm 1,6 1011,1 73 -
03:05 13,4 8,7   Kalm 1,6 1011,1 73 -
03:10 13,3 8,6   Kalm 3,2 1011,1 73 -
03:15 13,4 8,5   Kalm 3,2 1011,1 72 -
03:20 13,4 8,5   Kalm 3,2 1011,1 72 -
03:25 13,4 8,5   Kalm 1,6 1011,1 72 -
03:30 13,3 8,4 1,4 NO 1,6 1011,1 72 -
03:35 13,3 8,4   Kalm 1,6 1010,7 72 -
03:40 13,3 8,4   Kalm 3,2 1010,7 72 -
03:45 13,3 8,4   Kalm 1,6 1010,7 72 -
03:50 13,3 8,4   Kalm 1,6 1010,7 72 -
03:55 13,2 8,3   Kalm 1,6 1010,7 72 -
04:00 13,2 8,5   Kalm 1,6 1010,7 73 -
04:05 13,1 8,4   Kalm 1,6 1010,7 73 -
04:10 13,1 8,4   Kalm   1010,7 73 -
04:15 13,2 8,3   Kalm 1,6 1010,7 72 -
04:20 13,2 8,3   Kalm 1,6 1010,7 72 -
04:25 13,2 8,3   Kalm   1010,7 72 -
04:30 13,2 8,3   Kalm 1,6 1010,7 72 -
04:35 13,1 8,2 3,2 NO 3,2 1010,4 72 -
04:40 13,0 8,3   Kalm 3,2 1010,4 73 -
04:45 13,1 8,4   Kalm 1,6 1010,4 73 -
04:50 13,0 8,3   Kalm   1010,4 73 -
04:55 13,0 8,3   Kalm   1010,4 73 -
05:00 13,0 8,3   Kalm   1010,4 73 -
05:05 -17,8 -17,8   Kalm -1607,4 1010,4 0 -
05:10 -17,8 -17,8   Kalm -1607,4 1010,0 0 -
05:15 -17,8 -17,8   Kalm -1607,4 1010,0 0 -
05:20 -17,8 -17,8   Kalm -1607,4 1010,0 0 -
05:25 -17,8 -17,8   Kalm -1607,4 1010,0 0 -
05:30 -17,8 -17,8   Kalm -1607,4 1010,0 0 -
05:35 -17,8 -17,8   Kalm -1607,4 1010,0 0 -
05:40 -17,8 -17,8   Kalm -1607,4 1009,7 0 -
05:45 -17,8 -17,8   Kalm -1607,4 1009,7 0 -
05:50 -17,8 -17,8   Kalm -1607,4 1009,7 0 -
05:55 -17,8 -17,8   Kalm -1607,4 1009,7 0 -
06:00 -17,8 -17,8   Kalm -1607,4 1009,7 0 -
06:05 -17,8 -17,8   Kalm -1607,4 1009,7 0 -
06:10 12,6 8,1   Kalm 1,6 1009,4 74 -
06:15 12,6 8,1   Kalm   1009,7 74 -
06:20 12,5 8,0   Kalm 1,6 1009,4 74 -
06:25 12,6 8,1   Kalm 1,6 1009,7 74 -
06:30 12,7 8,0   Kalm 3,2 1009,4 73 -
06:35 12,8 8,1   Kalm 4,8 1009,4 73 -
06:40 12,9 8,2   Kalm   1009,4 73 -
06:45 12,9 8,2   Kalm 1,6 1009,4 73 -
06:50 12,9 8,0   Kalm 1,6 1009,4 72 -
06:55 13,0 8,1   Kalm 4,8 1009,4 72 -
07:00 13,0 8,1   Kalm 4,8 1009,4 72 -
07:05 12,9 8,0   Kalm 3,2 1009,4 72 -
07:10 12,8 8,1 4,7 OZO 4,8 1009,4 73 -
07:15 12,7 8,0   Kalm 1,6 1009,4 73 -
07:20 12,7 8,0   Kalm 1,6 1009,4 73 -
07:25 12,7 8,0 8,0 OZO 8,0 1009,4 73 -
07:30 12,8 8,1   Kalm 6,4 1009,4 73 -
07:35 12,8 8,1   Kalm 4,8 1009,4 73 -
07:40 12,9 8,2   Kalm 8,0 1009,4 73 -
07:45 12,9 8,2 1,4 OZO 1,6 1009,4 73 -
07:50 12,9 8,2   Kalm 4,8 1009,4 73 -
07:55 13,0 8,1   Kalm 3,2 1009,4 72 -
08:00 13,1 8,2 1,4 ZO 4,8 1009,4 72 -
08:05 13,1 8,2   Kalm 4,8 1009,4 72 -
08:10 13,2 8,3   Kalm 9,7 1009,4 72 -
08:15 13,3 8,4   Kalm 3,2 1009,0 72 -
08:20 13,3 8,4   Kalm 1,6 1009,0 72 -
08:25 13,4 8,2 1,4 ZZO 4,8 1009,0 71 -
08:30 13,6 8,4 6,4 ZZO 8,0 1009,0 71 -
08:35 13,8 8,4   Kalm 3,2 1009,0 70 -
08:40 14,0 8,6   Kalm 1,6 1009,0 70 -
08:45 14,2 8,6 1,4 Zuiden 3,2 1009,0 69 -
08:50 14,3 8,7   Kalm 4,8 1009,0 69 -
08:55 14,5 8,7   Kalm 6,4 1009,0 68 -
09:00 14,7 8,9 1,4 Zuiden 3,2 1009,0 68 -
09:05 14,8 9,0   Kalm 1,6 1009,0 68 -
09:10 14,9 8,8   Kalm 4,8 1009,0 67 -
09:15 15,1 9,0   Kalm 8,0 1009,0 67 -
09:20 15,3 9,0   Kalm 1,6 1009,0 66 -
09:25 15,4 9,1   Kalm 4,8 1009,0 66 -
09:30 15,5 9,2   Kalm 1,6 1009,0 66 -
09:35 15,7 9,1 3,2 Zuiden 4,8 1008,7 65 -
09:40 15,7 9,1 4,7 Zuiden 12,9 1008,7 65 -
09:45 15,8 9,2 1,4 Zuiden 9,7 1008,7 65 -
09:50 15,9 9,3 1,4 ZO 8,0 1008,7 65 -
09:55 16,1 9,5   Kalm 9,7 1008,7 65 -
10:00 16,3 9,5   Kalm 3,2 1008,7 64 -
10:05 16,6 9,8 1,4 NNO 6,4 1008,7 64 -
10:10 16,8 9,7 6,4 Zuiden 9,7 1008,4 63 -
10:15 16,8 10,0 4,7 Zuiden 4,8 1008,4 64 -
10:20 17,0 9,9   Kalm 9,7 1008,7 63 -
10:25 17,2 10,1 1,4 Zuiden 6,4 1008,7 63 -
10:30 17,6 10,5 3,2 Zuiden 3,2 1008,7 63 -
10:35 17,9 10,3 3,2 ZZO 9,7 1008,7 61 -
10:40 17,8 10,4 6,4 Zuiden 6,4 1008,7 62 -
10:45 17,8 10,4   Kalm 8,0 1008,4 62 -
10:50 17,9 10,5 1,4 Zuiden 6,4 1008,4 62 -
10:55 18,2 10,8   Kalm 8,0 1008,4 62 -
11:00 18,4 11,0 1,4 Zuiden 8,0 1008,4 62 -
11:05 18,7 11,3 3,2 Zuiden 3,2 1008,4 62 -
11:10 18,8 11,4   Kalm 6,4 1008,4 62 -
11:15 19,0 11,6 1,4 Zuiden 8,0 1008,0 62 -
11:20 19,2 11,7   Kalm 3,2 1008,0 62 -
11:25 19,6 11,9 4,7 Zuiden 4,8 1008,0 61 -
11:30 19,8 11,8 3,2 OZO 4,8 1007,7 60 -
11:35 20,1 12,1 1,4 ZZO 1,6 1007,7 60 -
11:40 20,5 12,0 3,2 Oosten 6,4 1007,7 58 -
11:45 20,8 12,2 3,2 ZO 8,0 1007,7 58 -
11:50 21,0 12,2   Kalm 4,8 1007,7 57 -
Dagelijkse Samenvatting Zondag 22 september 2019
Tijd Temp. ( °C ) Dew pt. ( °C ) Wind ( km/h ) van Windvlaag ( km/h ) Luchtdruk ( hPa ) Humid.( % ) Rainrate ( cm )
Hoog21,0 12,2 8,0 NO ( 70/156 ) 12,9 1012,8 77 -
Gemiddeld11,5 6,6 1,1 Kalm #89/143 -142,6 1010,1 64 -
Laag-17,8 -17,8 -   -1607,4 1007,7 0 -
Dagelijkse Tabular details for Zondag 22 september 2019
Tijd Temp. ( °C ) Dew pt. ( °C ) Wind ( km/h ) van Windvlaag ( km/h ) Luchtdruk ( hPa ) Humid.( % ) Rainrate ( cm )
00:00 14,6 9,8 3,2 NO 4,8 1012,8 73 -
00:05 14,6 9,8   Kalm 1,6 1012,8 73 -
00:10 14,3 9,7   Kalm 1,6 1012,4 74 -
00:15 14,1 9,7   Kalm 1,6 1012,4 75 -
00:20 14,0 9,6 1,4 NO 3,2 1012,4 75 -
00:25 13,9 9,5   Kalm   1012,4 75 -
00:30 13,7 9,5   Kalm   1012,4 76 -
00:35 13,6 9,4   Kalm   1012,4 76 -
00:40 13,4 9,4   Kalm   1012,4 77 -
00:45 13,3 9,4 1,4 NO 1,6 1012,4 77 -
00:50 13,3 9,4   Kalm   1012,1 77 -
00:55 13,3 9,4   Kalm   1012,1 77 -
01:00 13,4 9,3   Kalm 1,6 1012,1 76 -
01:05 13,4 9,3 3,2 NO 4,8 1012,1 76 -
01:10 13,5 9,2 3,2 NO 3,2 1012,1 75 -
01:15 13,5 9,2 3,2 NO 3,2 1012,1 75 -
01:20 13,6 9,3 1,4 NO 4,8 1012,1 75 -
01:25 13,6 9,3 1,4 NO 3,2 1012,1 75 -
01:30 13,5 9,2 3,2 NO 6,4 1011,7 75 -
01:35 13,4 9,1 3,2 NO 6,4 1011,7 75 -
01:40 13,4 9,1 1,4 NO 4,8 1011,7 75 -
01:45 13,4 9,1 1,4 NO 3,2 1011,7 75 -
01:50 13,3 9,0 6,4 NO 6,4 1011,7 75 -
01:55 13,3 8,8 1,4 NO 8,0 1011,7 74 -
02:00 13,3 8,8 4,7 NO 6,4 1011,7 74 -
02:05 13,4 8,9 3,2 NO 4,8 1011,7 74 -
02:10 13,4 8,9   Kalm 4,8 1011,7 74 -
02:15 13,4 8,7 3,2 NO 6,4 1011,4 73 -
02:20 13,4 8,7 3,2 NO 4,8 1011,4 73 -
02:25 13,4 8,7 1,4 NO 6,4 1011,4 73 -
02:30 13,4 8,7 1,4 NO 3,2 1011,4 73 -
02:35 13,4 8,7 3,2 NO 4,8 1011,4 73 -
02:40 13,4 8,7 3,2 NO 3,2 1011,1 73 -
02:45 13,4 8,7   Kalm 3,2 1011,1 73 -
02:50 13,3 8,6 4,7 NO 4,8 1011,1 73 -
02:55 13,3 8,6 1,4 NO 3,2 1011,1 73 -
03:00 13,4 8,7   Kalm 1,6 1011,1 73 -
03:05 13,4 8,7   Kalm 1,6 1011,1 73 -
03:10 13,3 8,6   Kalm 3,2 1011,1 73 -
03:15 13,4 8,5   Kalm 3,2 1011,1 72 -
03:20 13,4 8,5   Kalm 3,2 1011,1 72 -
03:25 13,4 8,5   Kalm 1,6 1011,1 72 -
03:30 13,3 8,4 1,4 NO 1,6 1011,1 72 -
03:35 13,3 8,4   Kalm 1,6 1010,7 72 -
03:40 13,3 8,4   Kalm 3,2 1010,7 72 -
03:45 13,3 8,4   Kalm 1,6 1010,7 72 -
03:50 13,3 8,4   Kalm 1,6 1010,7 72 -
03:55 13,2 8,3   Kalm 1,6 1010,7 72 -
04:00 13,2 8,5   Kalm 1,6 1010,7 73 -
04:05 13,1 8,4   Kalm 1,6 1010,7 73 -
04:10 13,1 8,4   Kalm   1010,7 73 -
04:15 13,2 8,3   Kalm 1,6 1010,7 72 -
04:20 13,2 8,3   Kalm 1,6 1010,7 72 -
04:25 13,2 8,3   Kalm   1010,7 72 -
04:30 13,2 8,3   Kalm 1,6 1010,7 72 -
04:35 13,1 8,2 3,2 NO 3,2 1010,4 72 -
04:40 13,0 8,3   Kalm 3,2 1010,4 73 -
04:45 13,1 8,4   Kalm 1,6 1010,4 73 -
04:50 13,0 8,3   Kalm   1010,4 73 -
04:55 13,0 8,3   Kalm   1010,4 73 -
05:00 13,0 8,3   Kalm   1010,4 73 -
05:05 -17,8 -17,8   Kalm -1607,4 1010,4 0 -
05:10 -17,8 -17,8   Kalm -1607,4 1010,0 0 -
05:15 -17,8 -17,8   Kalm -1607,4 1010,0 0 -
05:20 -17,8 -17,8   Kalm -1607,4 1010,0 0 -
05:25 -17,8 -17,8   Kalm -1607,4 1010,0 0 -
05:30 -17,8 -17,8   Kalm -1607,4 1010,0 0 -
05:35 -17,8 -17,8   Kalm -1607,4 1010,0 0 -
05:40 -17,8 -17,8   Kalm -1607,4 1009,7 0 -
05:45 -17,8 -17,8   Kalm -1607,4 1009,7 0 -
05:50 -17,8 -17,8   Kalm -1607,4 1009,7 0 -
05:55 -17,8 -17,8   Kalm -1607,4 1009,7 0 -
06:00 -17,8 -17,8   Kalm -1607,4 1009,7 0 -
06:05 -17,8 -17,8   Kalm -1607,4 1009,7 0 -
06:10 12,6 8,1   Kalm 1,6 1009,4 74 -
06:15 12,6 8,1   Kalm   1009,7 74 -
06:20 12,5 8,0   Kalm 1,6 1009,4 74 -
06:25 12,6 8,1   Kalm 1,6 1009,7 74 -
06:30 12,7 8,0   Kalm 3,2 1009,4 73 -
06:35 12,8 8,1   Kalm 4,8 1009,4 73 -
06:40 12,9 8,2   Kalm   1009,4 73 -
06:45 12,9 8,2   Kalm 1,6 1009,4 73 -
06:50 12,9 8,0   Kalm 1,6 1009,4 72 -
06:55 13,0 8,1   Kalm 4,8 1009,4 72 -
07:00 13,0 8,1   Kalm 4,8 1009,4 72 -
07:05 12,9 8,0   Kalm 3,2 1009,4 72 -
07:10 12,8 8,1 4,7 OZO 4,8 1009,4 73 -
07:15 12,7 8,0   Kalm 1,6 1009,4 73 -
07:20 12,7 8,0   Kalm 1,6 1009,4 73 -
07:25 12,7 8,0 8,0 OZO 8,0 1009,4 73 -
07:30 12,8 8,1   Kalm 6,4 1009,4 73 -
07:35 12,8 8,1   Kalm 4,8 1009,4 73 -
07:40 12,9 8,2   Kalm 8,0 1009,4 73 -
07:45 12,9 8,2 1,4 OZO 1,6 1009,4 73 -
07:50 12,9 8,2   Kalm 4,8 1009,4 73 -
07:55 13,0 8,1   Kalm 3,2 1009,4 72 -
08:00 13,1 8,2 1,4 ZO 4,8 1009,4 72 -
08:05 13,1 8,2   Kalm 4,8 1009,4 72 -
08:10 13,2 8,3   Kalm 9,7 1009,4 72 -
08:15 13,3 8,4   Kalm 3,2 1009,0 72 -
08:20 13,3 8,4   Kalm 1,6 1009,0 72 -
08:25 13,4 8,2 1,4 ZZO 4,8 1009,0 71 -
08:30 13,6 8,4 6,4 ZZO 8,0 1009,0 71 -
08:35 13,8 8,4   Kalm 3,2 1009,0 70 -
08:40 14,0 8,6   Kalm 1,6 1009,0 70 -
08:45 14,2 8,6 1,4 Zuiden 3,2 1009,0 69 -
08:50 14,3 8,7   Kalm 4,8 1009,0 69 -
08:55 14,5 8,7   Kalm 6,4 1009,0 68 -
09:00 14,7 8,9 1,4 Zuiden 3,2 1009,0 68 -
09:05 14,8 9,0   Kalm 1,6 1009,0 68 -
09:10 14,9 8,8   Kalm 4,8 1009,0 67 -
09:15 15,1 9,0   Kalm 8,0 1009,0 67 -
09:20 15,3 9,0   Kalm 1,6 1009,0 66 -
09:25 15,4 9,1   Kalm 4,8 1009,0 66 -
09:30 15,5 9,2   Kalm 1,6 1009,0 66 -
09:35 15,7 9,1 3,2 Zuiden 4,8 1008,7 65 -
09:40 15,7 9,1 4,7 Zuiden 12,9 1008,7 65 -
09:45 15,8 9,2 1,4 Zuiden 9,7 1008,7 65 -
09:50 15,9 9,3 1,4 ZO 8,0 1008,7 65 -
09:55 16,1 9,5   Kalm 9,7 1008,7 65 -
10:00 16,3 9,5   Kalm 3,2 1008,7 64 -
10:05 16,6 9,8 1,4 NNO 6,4 1008,7 64 -
10:10 16,8 9,7 6,4 Zuiden 9,7 1008,4 63 -
10:15 16,8 10,0 4,7 Zuiden 4,8 1008,4 64 -
10:20 17,0 9,9   Kalm 9,7 1008,7 63 -
10:25 17,2 10,1 1,4 Zuiden 6,4 1008,7 63 -
10:30 17,6 10,5 3,2 Zuiden 3,2 1008,7 63 -
10:35 17,9 10,3 3,2 ZZO 9,7 1008,7 61 -
10:40 17,8 10,4 6,4 Zuiden 6,4 1008,7 62 -
10:45 17,8 10,4   Kalm 8,0 1008,4 62 -
10:50 17,9 10,5 1,4 Zuiden 6,4 1008,4 62 -
10:55 18,2 10,8   Kalm 8,0 1008,4 62 -
11:00 18,4 11,0 1,4 Zuiden 8,0 1008,4 62 -
11:05 18,7 11,3 3,2 Zuiden 3,2 1008,4 62 -
11:10 18,8 11,4   Kalm 6,4 1008,4 62 -
11:15 19,0 11,6 1,4 Zuiden 8,0 1008,0 62 -
11:20 19,2 11,7   Kalm 3,2 1008,0 62 -
11:25 19,6 11,9 4,7 Zuiden 4,8 1008,0 61 -
11:30 19,8 11,8 3,2 OZO 4,8 1007,7 60 -
11:35 20,1 12,1 1,4 ZZO 1,6 1007,7 60 -
11:40 20,5 12,0 3,2 Oosten 6,4 1007,7 58 -
11:45 20,8 12,2 3,2 ZO 8,0 1007,7 58 -
11:50 21,0 12,2   Kalm 4,8 1007,7 57 -

Download your copy of this data-set  here

Our weather-data as stored at Weather Underground. Script ontwikkeld door Jim McMurry. Aangepast voor de template door Leuven-Template.eu

U vindt ons ook hier:

UK Metoffice

Weather Underground

Apparatuur in gebruik:

Weerstation
Davis VP2 Pro

Weercomputer
Made on my Apple Macbook Pro

Davis VP2 Pro

Made on my Apple Macbook Pro